sensor_id;sensor_type;location;lat;lon;timestamp;P1;durP1;ratioP1;P2;durP2;ratioP2
13471;SDS011;6808;49.444;11.034;2023-10-13T00:00:32;6.50;;;3.70;;
13471;SDS011;6808;49.444;11.034;2023-10-13T00:03:01;6.10;;;3.27;;
13471;SDS011;6808;49.444;11.034;2023-10-13T00:05:30;8.73;;;3.90;;
13471;SDS011;6808;49.444;11.034;2023-10-13T00:07:56;3.90;;;3.27;;
13471;SDS011;6808;49.444;11.034;2023-10-13T00:10:26;6.17;;;3.37;;
13471;SDS011;6808;49.444;11.034;2023-10-13T00:12:55;6.87;;;3.60;;
13471;SDS011;6808;49.444;11.034;2023-10-13T00:15:43;5.57;;;3.67;;
13471;SDS011;6808;49.444;11.034;2023-10-13T00:18:25;6.07;;;3.83;;
13471;SDS011;6808;49.444;11.034;2023-10-13T00:20:52;4.93;;;3.03;;
13471;SDS011;6808;49.444;11.034;2023-10-13T00:23:21;6.07;;;3.70;;
13471;SDS011;6808;49.444;11.034;2023-10-13T00:25:48;5.53;;;3.67;;
13471;SDS011;6808;49.444;11.034;2023-10-13T00:28:25;4.70;;;3.37;;
13471;SDS011;6808;49.444;11.034;2023-10-13T00:30:52;5.07;;;3.50;;
13471;SDS011;6808;49.444;11.034;2023-10-13T00:33:25;5.33;;;3.57;;
13471;SDS011;6808;49.444;11.034;2023-10-13T00:35:52;7.57;;;3.10;;
13471;SDS011;6808;49.444;11.034;2023-10-13T00:38:17;4.83;;;3.40;;
13471;SDS011;6808;49.444;11.034;2023-10-13T00:40:48;4.40;;;3.43;;
13471;SDS011;6808;49.444;11.034;2023-10-13T00:43:20;5.30;;;3.47;;
13471;SDS011;6808;49.444;11.034;2023-10-13T00:45:48;8.43;;;3.80;;
13471;SDS011;6808;49.444;11.034;2023-10-13T00:48:22;10.53;;;3.40;;
13471;SDS011;6808;49.444;11.034;2023-10-13T00:50:54;5.97;;;3.93;;
13471;SDS011;6808;49.444;11.034;2023-10-13T00:53:21;5.60;;;3.57;;
13471;SDS011;6808;49.444;11.034;2023-10-13T00:55:50;6.30;;;4.03;;
13471;SDS011;6808;49.444;11.034;2023-10-13T00:58:16;6.17;;;3.53;;
13471;SDS011;6808;49.444;11.034;2023-10-13T01:00:47;8.03;;;3.90;;
13471;SDS011;6808;49.444;11.034;2023-10-13T01:03:20;4.90;;;3.67;;
13471;SDS011;6808;49.444;11.034;2023-10-13T01:05:51;4.20;;;3.30;;
13471;SDS011;6808;49.444;11.034;2023-10-13T01:08:19;6.20;;;4.17;;
13471;SDS011;6808;49.444;11.034;2023-10-13T01:10:59;4.63;;;3.77;;
13471;SDS011;6808;49.444;11.034;2023-10-13T01:13:25;5.93;;;3.67;;
13471;SDS011;6808;49.444;11.034;2023-10-13T01:15:52;4.73;;;3.90;;
13471;SDS011;6808;49.444;11.034;2023-10-13T01:18:17;5.33;;;3.83;;
13471;SDS011;6808;49.444;11.034;2023-10-13T01:20:43;5.40;;;3.50;;
13471;SDS011;6808;49.444;11.034;2023-10-13T01:23:13;6.00;;;3.77;;
13471;SDS011;6808;49.444;11.034;2023-10-13T01:25:49;6.10;;;3.67;;
13471;SDS011;6808;49.444;11.034;2023-10-13T01:28:14;9.77;;;3.93;;
13471;SDS011;6808;49.444;11.034;2023-10-13T01:30:43;5.20;;;4.17;;
13471;SDS011;6808;49.444;11.034;2023-10-13T01:33:15;6.13;;;3.87;;
13471;SDS011;6808;49.444;11.034;2023-10-13T01:35:41;4.67;;;3.60;;
13471;SDS011;6808;49.444;11.034;2023-10-13T01:38:12;5.60;;;3.67;;
13471;SDS011;6808;49.444;11.034;2023-10-13T01:40:38;4.87;;;3.80;;
13471;SDS011;6808;49.444;11.034;2023-10-13T01:43:04;6.97;;;4.20;;
13471;SDS011;6808;49.444;11.034;2023-10-13T01:45:30;5.60;;;3.30;;
13471;SDS011;6808;49.444;11.034;2023-10-13T01:47:55;4.73;;;3.67;;
13471;SDS011;6808;49.444;11.034;2023-10-13T01:50:21;6.70;;;4.10;;
13471;SDS011;6808;49.444;11.034;2023-10-13T01:52:54;4.57;;;3.80;;
13471;SDS011;6808;49.444;11.034;2023-10-13T01:55:41;4.60;;;3.60;;
13471;SDS011;6808;49.444;11.034;2023-10-13T01:58:10;6.77;;;3.83;;
13471;SDS011;6808;49.444;11.034;2023-10-13T02:00:54;6.47;;;3.50;;
13471;SDS011;6808;49.444;11.034;2023-10-13T02:03:21;4.80;;;3.57;;
13471;SDS011;6808;49.444;11.034;2023-10-13T02:05:48;4.07;;;3.30;;
13471;SDS011;6808;49.444;11.034;2023-10-13T02:10:58;5.37;;;3.20;;
13471;SDS011;6808;49.444;11.034;2023-10-13T02:13:26;6.10;;;4.07;;
13471;SDS011;6808;49.444;11.034;2023-10-13T02:15:55;4.67;;;3.80;;
13471;SDS011;6808;49.444;11.034;2023-10-13T02:18:22;5.10;;;3.43;;
13471;SDS011;6808;49.444;11.034;2023-10-13T02:20:55;5.13;;;3.97;;
13471;SDS011;6808;49.444;11.034;2023-10-13T02:23:29;4.97;;;3.87;;
13471;SDS011;6808;49.444;11.034;2023-10-13T02:25:55;5.10;;;4.07;;
13471;SDS011;6808;49.444;11.034;2023-10-13T02:28:29;4.20;;;3.47;;
13471;SDS011;6808;49.444;11.034;2023-10-13T02:31:01;6.50;;;3.50;;
13471;SDS011;6808;49.444;11.034;2023-10-13T02:33:28;5.03;;;3.77;;
13471;SDS011;6808;49.444;11.034;2023-10-13T02:35:55;4.53;;;3.37;;
13471;SDS011;6808;49.444;11.034;2023-10-13T02:38:22;7.87;;;3.63;;
13471;SDS011;6808;49.444;11.034;2023-10-13T02:41:20;5.13;;;3.37;;
13471;SDS011;6808;49.444;11.034;2023-10-13T02:43:51;5.43;;;3.77;;
13471;SDS011;6808;49.444;11.034;2023-10-13T02:46:17;6.70;;;4.30;;
13471;SDS011;6808;49.444;11.034;2023-10-13T02:48:47;7.30;;;3.53;;
13471;SDS011;6808;49.444;11.034;2023-10-13T02:51:18;4.90;;;3.63;;
13471;SDS011;6808;49.444;11.034;2023-10-13T02:53:47;7.83;;;4.37;;
13471;SDS011;6808;49.444;11.034;2023-10-13T02:56:17;6.00;;;3.60;;
13471;SDS011;6808;49.444;11.034;2023-10-13T02:58:47;6.73;;;3.87;;
13471;SDS011;6808;49.444;11.034;2023-10-13T03:01:21;4.90;;;3.80;;
13471;SDS011;6808;49.444;11.034;2023-10-13T03:03:53;5.40;;;3.80;;
13471;SDS011;6808;49.444;11.034;2023-10-13T03:06:21;4.57;;;3.40;;
13471;SDS011;6808;49.444;11.034;2023-10-13T03:09:18;4.13;;;3.43;;
13471;SDS011;6808;49.444;11.034;2023-10-13T03:11:44;6.30;;;4.37;;
13471;SDS011;6808;49.444;11.034;2023-10-13T03:14:23;5.73;;;4.07;;
13471;SDS011;6808;49.444;11.034;2023-10-13T03:16:52;7.07;;;3.90;;
13471;SDS011;6808;49.444;11.034;2023-10-13T03:19:19;5.57;;;4.10;;
13471;SDS011;6808;49.444;11.034;2023-10-13T03:21:46;5.23;;;4.00;;
13471;SDS011;6808;49.444;11.034;2023-10-13T03:24:20;8.07;;;3.87;;
13471;SDS011;6808;49.444;11.034;2023-10-13T03:26:59;4.87;;;3.60;;
13471;SDS011;6808;49.444;11.034;2023-10-13T03:29:46;6.70;;;3.87;;
13471;SDS011;6808;49.444;11.034;2023-10-13T03:32:13;6.93;;;3.83;;
13471;SDS011;6808;49.444;11.034;2023-10-13T03:34:43;5.40;;;3.77;;
13471;SDS011;6808;49.444;11.034;2023-10-13T03:37:18;5.17;;;3.90;;
13471;SDS011;6808;49.444;11.034;2023-10-13T03:40:03;5.77;;;4.17;;
13471;SDS011;6808;49.444;11.034;2023-10-13T03:42:45;3.60;;;3.20;;
13471;SDS011;6808;49.444;11.034;2023-10-13T03:48:05;8.63;;;4.30;;
13471;SDS011;6808;49.444;11.034;2023-10-13T03:50:39;4.00;;;3.57;;
13471;SDS011;6808;49.444;11.034;2023-10-13T03:53:13;4.57;;;3.37;;
13471;SDS011;6808;49.444;11.034;2023-10-13T03:55:39;4.73;;;3.53;;
13471;SDS011;6808;49.444;11.034;2023-10-13T03:58:12;4.73;;;3.17;;
13471;SDS011;6808;49.444;11.034;2023-10-13T04:00:39;5.57;;;3.80;;
13471;SDS011;6808;49.444;11.034;2023-10-13T04:03:07;4.83;;;3.30;;
13471;SDS011;6808;49.444;11.034;2023-10-13T04:05:34;5.27;;;3.50;;
13471;SDS011;6808;49.444;11.034;2023-10-13T04:08:06;4.60;;;3.77;;
13471;SDS011;6808;49.444;11.034;2023-10-13T04:10:54;5.90;;;3.60;;
13471;SDS011;6808;49.444;11.034;2023-10-13T04:13:21;4.73;;;3.50;;
13471;SDS011;6808;49.444;11.034;2023-10-13T04:16:07;7.13;;;4.20;;
13471;SDS011;6808;49.444;11.034;2023-10-13T04:18:49;4.87;;;3.50;;
13471;SDS011;6808;49.444;11.034;2023-10-13T04:21:33;5.97;;;3.63;;
13471;SDS011;6808;49.444;11.034;2023-10-13T04:24:07;6.00;;;3.27;;
13471;SDS011;6808;49.444;11.034;2023-10-13T04:26:43;6.90;;;3.77;;
13471;SDS011;6808;49.444;11.034;2023-10-13T04:29:34;4.50;;;3.67;;
13471;SDS011;6808;49.444;11.034;2023-10-13T04:32:18;4.33;;;3.60;;
13471;SDS011;6808;49.444;11.034;2023-10-13T04:34:57;5.30;;;3.70;;
13471;SDS011;6808;49.444;11.034;2023-10-13T04:37:35;6.03;;;3.60;;
13471;SDS011;6808;49.444;11.034;2023-10-13T04:40:21;6.23;;;3.83;;
13471;SDS011;6808;49.444;11.034;2023-10-13T04:42:51;7.90;;;3.90;;
13471;SDS011;6808;49.444;11.034;2023-10-13T04:45:23;4.47;;;3.33;;
13471;SDS011;6808;49.444;11.034;2023-10-13T04:47:55;4.40;;;3.17;;
13471;SDS011;6808;49.444;11.034;2023-10-13T04:50:39;5.00;;;3.90;;
13471;SDS011;6808;49.444;11.034;2023-10-13T04:53:11;6.00;;;3.70;;
13471;SDS011;6808;49.444;11.034;2023-10-13T04:56:12;5.53;;;3.67;;
13471;SDS011;6808;49.444;11.034;2023-10-13T04:58:57;5.37;;;3.40;;
13471;SDS011;6808;49.444;11.034;2023-10-13T05:01:43;4.37;;;3.53;;
13471;SDS011;6808;49.444;11.034;2023-10-13T05:04:34;5.27;;;3.30;;
13471;SDS011;6808;49.444;11.034;2023-10-13T05:07:04;5.77;;;3.37;;
13471;SDS011;6808;49.444;11.034;2023-10-13T05:09:49;7.03;;;3.77;;
13471;SDS011;6808;49.444;11.034;2023-10-13T05:12:33;5.60;;;3.63;;
13471;SDS011;6808;49.444;11.034;2023-10-13T05:15:18;9.30;;;7.17;;
13471;SDS011;6808;49.444;11.034;2023-10-13T05:18:02;6.17;;;4.50;;
13471;SDS011;6808;49.444;11.034;2023-10-13T05:20:47;6.37;;;3.67;;
13471;SDS011;6808;49.444;11.034;2023-10-13T05:23:32;5.50;;;3.50;;
13471;SDS011;6808;49.444;11.034;2023-10-13T05:26:20;5.10;;;3.40;;
13471;SDS011;6808;49.444;11.034;2023-10-13T05:29:05;4.20;;;3.00;;
13471;SDS011;6808;49.444;11.034;2023-10-13T05:31:49;6.03;;;4.03;;
13471;SDS011;6808;49.444;11.034;2023-10-13T05:34:33;7.77;;;3.63;;
13471;SDS011;6808;49.444;11.034;2023-10-13T05:37:17;4.50;;;3.33;;
13471;SDS011;6808;49.444;11.034;2023-10-13T05:40:01;4.80;;;2.93;;
13471;SDS011;6808;49.444;11.034;2023-10-13T05:42:45;4.27;;;2.93;;
13471;SDS011;6808;49.444;11.034;2023-10-13T05:45:29;4.70;;;3.47;;
13471;SDS011;6808;49.444;11.034;2023-10-13T05:48:14;5.80;;;3.47;;
13471;SDS011;6808;49.444;11.034;2023-10-13T05:50:49;11.03;;;3.10;;
13471;SDS011;6808;49.444;11.034;2023-10-13T05:53:22;5.20;;;3.33;;
13471;SDS011;6808;49.444;11.034;2023-10-13T05:56:06;3.53;;;3.13;;
13471;SDS011;6808;49.444;11.034;2023-10-13T05:58:52;18.10;;;11.43;;
13471;SDS011;6808;49.444;11.034;2023-10-13T06:01:53;5.37;;;3.40;;
13471;SDS011;6808;49.444;11.034;2023-10-13T06:04:37;4.07;;;3.40;;
13471;SDS011;6808;49.444;11.034;2023-10-13T06:07:21;4.03;;;3.07;;
13471;SDS011;6808;49.444;11.034;2023-10-13T06:10:05;4.70;;;3.30;;
13471;SDS011;6808;49.444;11.034;2023-10-13T06:12:50;4.93;;;3.20;;
13471;SDS011;6808;49.444;11.034;2023-10-13T06:15:37;5.33;;;2.80;;
13471;SDS011;6808;49.444;11.034;2023-10-13T06:18:21;5.23;;;3.27;;
13471;SDS011;6808;49.444;11.034;2023-10-13T06:21:06;3.40;;;3.10;;
13471;SDS011;6808;49.444;11.034;2023-10-13T06:23:50;6.13;;;3.10;;
13471;SDS011;6808;49.444;11.034;2023-10-13T06:26:34;12.60;;;7.27;;
13471;SDS011;6808;49.444;11.034;2023-10-13T06:29:18;18.20;;;9.47;;
13471;SDS011;6808;49.444;11.034;2023-10-13T06:31:45;12.40;;;7.10;;
13471;SDS011;6808;49.444;11.034;2023-10-13T06:34:11;9.33;;;4.73;;
13471;SDS011;6808;49.444;11.034;2023-10-13T06:36:40;10.93;;;4.20;;
13471;SDS011;6808;49.444;11.034;2023-10-13T06:39:07;4.27;;;2.90;;
13471;SDS011;6808;49.444;11.034;2023-10-13T06:42:00;4.10;;;3.03;;
13471;SDS011;6808;49.444;11.034;2023-10-13T06:44:27;8.07;;;3.67;;
13471;SDS011;6808;49.444;11.034;2023-10-13T06:46:57;4.17;;;3.20;;
13471;SDS011;6808;49.444;11.034;2023-10-13T06:49:23;5.53;;;3.00;;
13471;SDS011;6808;49.444;11.034;2023-10-13T06:51:48;5.03;;;2.77;;
13471;SDS011;6808;49.444;11.034;2023-10-13T06:54:14;4.73;;;3.33;;
13471;SDS011;6808;49.444;11.034;2023-10-13T06:56:46;3.60;;;3.03;;
13471;SDS011;6808;49.444;11.034;2023-10-13T06:59:16;5.40;;;3.00;;
13471;SDS011;6808;49.444;11.034;2023-10-13T07:01:42;4.63;;;3.13;;
13471;SDS011;6808;49.444;11.034;2023-10-13T07:04:09;4.13;;;2.97;;
13471;SDS011;6808;49.444;11.034;2023-10-13T07:06:42;6.70;;;2.97;;
13471;SDS011;6808;49.444;11.034;2023-10-13T07:09:17;3.97;;;3.07;;
13471;SDS011;6808;49.444;11.034;2023-10-13T07:12:01;3.13;;;2.80;;
13471;SDS011;6808;49.444;11.034;2023-10-13T07:14:28;4.37;;;2.90;;
13471;SDS011;6808;49.444;11.034;2023-10-13T07:17:00;5.80;;;2.93;;
13471;SDS011;6808;49.444;11.034;2023-10-13T07:19:27;6.83;;;3.17;;
13471;SDS011;6808;49.444;11.034;2023-10-13T07:22:00;3.33;;;2.60;;
13471;SDS011;6808;49.444;11.034;2023-10-13T07:24:44;5.80;;;2.73;;
13471;SDS011;6808;49.444;11.034;2023-10-13T07:27:14;3.00;;;2.60;;
13471;SDS011;6808;49.444;11.034;2023-10-13T07:29:49;3.13;;;2.53;;
13471;SDS011;6808;49.444;11.034;2023-10-13T07:32:21;5.20;;;2.60;;
13471;SDS011;6808;49.444;11.034;2023-10-13T07:34:52;7.20;;;2.50;;
13471;SDS011;6808;49.444;11.034;2023-10-13T07:37:20;3.87;;;3.00;;
13471;SDS011;6808;49.444;11.034;2023-10-13T07:39:57;3.20;;;2.77;;
13471;SDS011;6808;49.444;11.034;2023-10-13T07:42:24;3.17;;;2.57;;
13471;SDS011;6808;49.444;11.034;2023-10-13T07:44:55;3.77;;;2.70;;
13471;SDS011;6808;49.444;11.034;2023-10-13T07:47:22;3.47;;;2.70;;
13471;SDS011;6808;49.444;11.034;2023-10-13T07:49:49;5.33;;;2.87;;
13471;SDS011;6808;49.444;11.034;2023-10-13T07:52:15;4.10;;;2.67;;
13471;SDS011;6808;49.444;11.034;2023-10-13T07:54:48;3.53;;;2.80;;
13471;SDS011;6808;49.444;11.034;2023-10-13T07:57:15;4.53;;;3.20;;
13471;SDS011;6808;49.444;11.034;2023-10-13T07:59:42;4.30;;;2.73;;
13471;SDS011;6808;49.444;11.034;2023-10-13T08:02:14;4.93;;;3.00;;
13471;SDS011;6808;49.444;11.034;2023-10-13T08:05:00;2.97;;;2.50;;
13471;SDS011;6808;49.444;11.034;2023-10-13T08:07:25;3.97;;;2.70;;
13471;SDS011;6808;49.444;11.034;2023-10-13T08:09:53;3.93;;;2.70;;
13471;SDS011;6808;49.444;11.034;2023-10-13T08:12:19;4.33;;;2.83;;
13471;SDS011;6808;49.444;11.034;2023-10-13T08:14:48;5.77;;;2.70;;
13471;SDS011;6808;49.444;11.034;2023-10-13T08:17:13;3.23;;;2.50;;
13471;SDS011;6808;49.444;11.034;2023-10-13T08:19:39;5.30;;;3.10;;
13471;SDS011;6808;49.444;11.034;2023-10-13T08:22:10;3.20;;;2.40;;
13471;SDS011;6808;49.444;11.034;2023-10-13T08:24:49;5.87;;;2.63;;
13471;SDS011;6808;49.444;11.034;2023-10-13T08:27:19;7.03;;;2.83;;
13471;SDS011;6808;49.444;11.034;2023-10-13T08:29:59;4.57;;;2.60;;
13471;SDS011;6808;49.444;11.034;2023-10-13T08:32:44;4.20;;;2.83;;
13471;SDS011;6808;49.444;11.034;2023-10-13T08:35:23;3.70;;;2.90;;
13471;SDS011;6808;49.444;11.034;2023-10-13T08:37:54;5.20;;;2.13;;
13471;SDS011;6808;49.444;11.034;2023-10-13T08:40:22;3.13;;;2.37;;
13471;SDS011;6808;49.444;11.034;2023-10-13T08:43:11;3.10;;;2.40;;
13471;SDS011;6808;49.444;11.034;2023-10-13T08:45:38;3.43;;;2.57;;
13471;SDS011;6808;49.444;11.034;2023-10-13T08:48:05;4.87;;;2.83;;
13471;SDS011;6808;49.444;11.034;2023-10-13T08:50:46;4.47;;;2.73;;
13471;SDS011;6808;49.444;11.034;2023-10-13T08:53:31;4.43;;;2.63;;
13471;SDS011;6808;49.444;11.034;2023-10-13T08:56:10;4.10;;;2.30;;
13471;SDS011;6808;49.444;11.034;2023-10-13T08:58:46;3.73;;;2.40;;
13471;SDS011;6808;49.444;11.034;2023-10-13T09:06:47;2.83;;;2.20;;
13471;SDS011;6808;49.444;11.034;2023-10-13T09:09:21;3.97;;;2.40;;
13471;SDS011;6808;49.444;11.034;2023-10-13T09:11:59;4.00;;;2.57;;
13471;SDS011;6808;49.444;11.034;2023-10-13T09:14:38;3.67;;;2.70;;
13471;SDS011;6808;49.444;11.034;2023-10-13T09:17:09;5.03;;;2.33;;
13471;SDS011;6808;49.444;11.034;2023-10-13T09:22:29;2.83;;;2.13;;
13471;SDS011;6808;49.444;11.034;2023-10-13T09:25:01;4.77;;;2.67;;
13471;SDS011;6808;49.444;11.034;2023-10-13T09:27:30;3.07;;;2.43;;
13471;SDS011;6808;49.444;11.034;2023-10-13T09:30:01;3.97;;;2.27;;
13471;SDS011;6808;49.444;11.034;2023-10-13T09:32:46;4.17;;;1.87;;
13471;SDS011;6808;49.444;11.034;2023-10-13T09:37:44;3.40;;;2.20;;
13471;SDS011;6808;49.444;11.034;2023-10-13T09:40:16;2.43;;;2.10;;
13471;SDS011;6808;49.444;11.034;2023-10-13T09:43:01;4.30;;;2.33;;
13471;SDS011;6808;49.444;11.034;2023-10-13T09:45:32;3.17;;;2.30;;
13471;SDS011;6808;49.444;11.034;2023-10-13T09:48:03;3.67;;;2.30;;
13471;SDS011;6808;49.444;11.034;2023-10-13T09:50:36;3.10;;;2.33;;
13471;SDS011;6808;49.444;11.034;2023-10-13T09:53:05;4.17;;;2.10;;
13471;SDS011;6808;49.444;11.034;2023-10-13T09:55:35;2.53;;;2.10;;
13471;SDS011;6808;49.444;11.034;2023-10-13T09:58:09;2.93;;;2.23;;
13471;SDS011;6808;49.444;11.034;2023-10-13T10:00:42;2.40;;;2.20;;
13471;SDS011;6808;49.444;11.034;2023-10-13T10:03:13;4.23;;;2.30;;
13471;SDS011;6808;49.444;11.034;2023-10-13T10:06:01;2.57;;;2.00;;
13471;SDS011;6808;49.444;11.034;2023-10-13T10:08:32;3.63;;;2.03;;
13471;SDS011;6808;49.444;11.034;2023-10-13T10:14:01;2.17;;;1.90;;
13471;SDS011;6808;49.444;11.034;2023-10-13T10:16:47;3.90;;;2.07;;
13471;SDS011;6808;49.444;11.034;2023-10-13T10:19:32;2.90;;;2.20;;
13471;SDS011;6808;49.444;11.034;2023-10-13T10:22:04;3.20;;;2.10;;
13471;SDS011;6808;49.444;11.034;2023-10-13T10:24:42;3.87;;;2.50;;
13471;SDS011;6808;49.444;11.034;2023-10-13T10:27:08;4.43;;;2.67;;
13471;SDS011;6808;49.444;11.034;2023-10-13T10:29:40;2.83;;;1.90;;
13471;SDS011;6808;49.444;11.034;2023-10-13T10:32:18;2.93;;;2.10;;
13471;SDS011;6808;49.444;11.034;2023-10-13T10:34:44;7.10;;;2.40;;
13471;SDS011;6808;49.444;11.034;2023-10-13T10:37:10;3.90;;;2.20;;
13471;SDS011;6808;49.444;11.034;2023-10-13T10:39:37;3.70;;;1.90;;
13471;SDS011;6808;49.444;11.034;2023-10-13T10:42:14;3.57;;;2.17;;
13471;SDS011;6808;49.444;11.034;2023-10-13T10:44:41;2.20;;;1.97;;
13471;SDS011;6808;49.444;11.034;2023-10-13T10:47:12;5.83;;;2.23;;
13471;SDS011;6808;49.444;11.034;2023-10-13T10:50:02;2.63;;;2.00;;
13471;SDS011;6808;49.444;11.034;2023-10-13T10:52:51;3.53;;;2.07;;
13471;SDS011;6808;49.444;11.034;2023-10-13T10:55:22;4.57;;;2.47;;
13471;SDS011;6808;49.444;11.034;2023-10-13T10:57:59;4.53;;;2.60;;
13471;SDS011;6808;49.444;11.034;2023-10-13T11:00:32;2.53;;;2.23;;
13471;SDS011;6808;49.444;11.034;2023-10-13T11:03:11;3.40;;;1.90;;
13471;SDS011;6808;49.444;11.034;2023-10-13T11:05:45;2.90;;;2.00;;
13471;SDS011;6808;49.444;11.034;2023-10-13T11:08:24;2.60;;;1.70;;
13471;SDS011;6808;49.444;11.034;2023-10-13T11:10:57;3.40;;;1.80;;
13471;SDS011;6808;49.444;11.034;2023-10-13T11:13:25;3.03;;;1.90;;
13471;SDS011;6808;49.444;11.034;2023-10-13T11:15:55;3.70;;;1.80;;
13471;SDS011;6808;49.444;11.034;2023-10-13T11:18:28;2.83;;;1.90;;
13471;SDS011;6808;49.444;11.034;2023-10-13T11:21:03;3.03;;;1.90;;
13471;SDS011;6808;49.444;11.034;2023-10-13T11:23:32;4.63;;;2.60;;
13471;SDS011;6808;49.444;11.034;2023-10-13T11:26:01;3.70;;;2.10;;
13471;SDS011;6808;49.444;11.034;2023-10-13T11:28:29;1.70;;;1.60;;
13471;SDS011;6808;49.444;11.034;2023-10-13T11:30:57;4.20;;;1.80;;
13471;SDS011;6808;49.444;11.034;2023-10-13T11:33:23;3.40;;;2.00;;
13471;SDS011;6808;49.444;11.034;2023-10-13T11:35:51;3.00;;;1.97;;
13471;SDS011;6808;49.444;11.034;2023-10-13T11:38:20;2.97;;;1.97;;
13471;SDS011;6808;49.444;11.034;2023-10-13T11:41:04;4.70;;;1.90;;
13471;SDS011;6808;49.444;11.034;2023-10-13T11:43:32;3.87;;;1.80;;
13471;SDS011;6808;49.444;11.034;2023-10-13T11:46:10;3.70;;;1.70;;
13471;SDS011;6808;49.444;11.034;2023-10-13T11:48:44;1.60;;;1.50;;
13471;SDS011;6808;49.444;11.034;2023-10-13T11:51:12;1.93;;;1.73;;
13471;SDS011;6808;49.444;11.034;2023-10-13T11:53:45;3.80;;;2.10;;
13471;SDS011;6808;49.444;11.034;2023-10-13T11:56:17;2.53;;;1.53;;
13471;SDS011;6808;49.444;11.034;2023-10-13T11:58:45;3.20;;;2.10;;
13471;SDS011;6808;49.444;11.034;2023-10-13T12:01:11;2.93;;;2.00;;
13471;SDS011;6808;49.444;11.034;2023-10-13T12:03:37;3.47;;;2.53;;
13471;SDS011;6808;49.444;11.034;2023-10-13T12:06:26;3.30;;;1.97;;
13471;SDS011;6808;49.444;11.034;2023-10-13T12:08:58;2.03;;;1.70;;
13471;SDS011;6808;49.444;11.034;2023-10-13T12:11:36;3.23;;;1.73;;
13471;SDS011;6808;49.444;11.034;2023-10-13T12:14:04;4.30;;;1.67;;
13471;SDS011;6808;49.444;11.034;2023-10-13T12:16:43;2.87;;;1.97;;
13471;SDS011;6808;49.444;11.034;2023-10-13T12:19:13;2.53;;;1.70;;
13471;SDS011;6808;49.444;11.034;2023-10-13T12:21:41;3.83;;;1.73;;
13471;SDS011;6808;49.444;11.034;2023-10-13T12:24:08;2.73;;;1.70;;
13471;SDS011;6808;49.444;11.034;2023-10-13T12:26:47;2.73;;;2.10;;
13471;SDS011;6808;49.444;11.034;2023-10-13T12:29:13;4.73;;;1.93;;
13471;SDS011;6808;49.444;11.034;2023-10-13T12:31:47;2.20;;;1.80;;
13471;SDS011;6808;49.444;11.034;2023-10-13T12:34:26;4.53;;;1.90;;
13471;SDS011;6808;49.444;11.034;2023-10-13T12:37:12;2.67;;;1.73;;
13471;SDS011;6808;49.444;11.034;2023-10-13T12:39:56;2.50;;;1.70;;
13471;SDS011;6808;49.444;11.034;2023-10-13T12:42:40;2.83;;;1.87;;
13471;SDS011;6808;49.444;11.034;2023-10-13T12:45:24;2.43;;;1.70;;
13471;SDS011;6808;49.444;11.034;2023-10-13T12:48:08;3.07;;;1.80;;
13471;SDS011;6808;49.444;11.034;2023-10-13T12:50:53;2.00;;;1.70;;
13471;SDS011;6808;49.444;11.034;2023-10-13T12:53:33;2.67;;;1.87;;
13471;SDS011;6808;49.444;11.034;2023-10-13T12:55:58;4.10;;;2.20;;
13471;SDS011;6808;49.444;11.034;2023-10-13T12:58:24;1.77;;;1.67;;
13471;SDS011;6808;49.444;11.034;2023-10-13T13:00:52;5.10;;;1.87;;
13471;SDS011;6808;49.444;11.034;2023-10-13T13:03:30;1.73;;;1.50;;
13471;SDS011;6808;49.444;11.034;2023-10-13T13:05:55;3.07;;;1.90;;
13471;SDS011;6808;49.444;11.034;2023-10-13T13:08:21;3.93;;;1.90;;
13471;SDS011;6808;49.444;11.034;2023-10-13T13:10:49;2.67;;;1.70;;
13471;SDS011;6808;49.444;11.034;2023-10-13T13:13:16;2.37;;;1.50;;
13471;SDS011;6808;49.444;11.034;2023-10-13T13:15:49;2.30;;;2.00;;
13471;SDS011;6808;49.444;11.034;2023-10-13T13:18:15;3.33;;;1.93;;
13471;SDS011;6808;49.444;11.034;2023-10-13T13:20:41;4.37;;;1.90;;
13471;SDS011;6808;49.444;11.034;2023-10-13T13:23:18;3.50;;;1.80;;
13471;SDS011;6808;49.444;11.034;2023-10-13T13:25:47;1.60;;;1.50;;
13471;SDS011;6808;49.444;11.034;2023-10-13T13:28:13;2.22;;;1.55;;
13471;SDS011;6808;49.444;11.034;2023-10-13T13:30:43;3.08;;;1.73;;
13471;SDS011;6808;49.444;11.034;2023-10-13T13:33:11;3.40;;;1.67;;
13471;SDS011;6808;49.444;11.034;2023-10-13T13:35:37;4.32;;;1.75;;
13471;SDS011;6808;49.444;11.034;2023-10-13T13:38:03;1.88;;;1.38;;
13471;SDS011;6808;49.444;11.034;2023-10-13T13:40:38;1.80;;;1.40;;
13471;SDS011;6808;49.444;11.034;2023-10-13T13:43:04;2.72;;;1.60;;
13471;SDS011;6808;49.444;11.034;2023-10-13T13:45:31;2.63;;;1.40;;
13471;SDS011;6808;49.444;11.034;2023-10-13T13:47:59;3.42;;;1.80;;
13471;SDS011;6808;49.444;11.034;2023-10-13T13:50:25;2.03;;;1.50;;
13471;SDS011;6808;49.444;11.034;2023-10-13T13:52:54;2.47;;;1.80;;
13471;SDS011;6808;49.444;11.034;2023-10-13T13:55:21;2.42;;;1.70;;
13471;SDS011;6808;49.444;11.034;2023-10-13T13:57:48;2.88;;;1.83;;
13471;SDS011;6808;49.444;11.034;2023-10-13T14:00:16;2.20;;;1.80;;
13471;SDS011;6808;49.444;11.034;2023-10-13T14:02:45;2.45;;;1.50;;
13471;SDS011;6808;49.444;11.034;2023-10-13T14:05:13;3.70;;;1.95;;
13471;SDS011;6808;49.444;11.034;2023-10-13T14:07:43;2.50;;;1.60;;
13471;SDS011;6808;49.444;11.034;2023-10-13T14:10:14;5.80;;;1.92;;
13471;SDS011;6808;49.444;11.034;2023-10-13T14:13:19;3.45;;;1.58;;
13471;SDS011;6808;49.444;11.034;2023-10-13T14:15:47;5.00;;;1.70;;
13471;SDS011;6808;49.444;11.034;2023-10-13T14:18:13;2.70;;;1.70;;
13471;SDS011;6808;49.444;11.034;2023-10-13T14:20:41;3.17;;;1.65;;
13471;SDS011;6808;49.444;11.034;2023-10-13T14:23:08;2.70;;;1.70;;
13471;SDS011;6808;49.444;11.034;2023-10-13T14:25:36;6.20;;;1.58;;
13471;SDS011;6808;49.444;11.034;2023-10-13T14:28:05;2.95;;;1.73;;
13471;SDS011;6808;49.444;11.034;2023-10-13T14:30:31;2.63;;;1.55;;
13471;SDS011;6808;49.444;11.034;2023-10-13T14:32:57;2.85;;;2.13;;
13471;SDS011;6808;49.444;11.034;2023-10-13T14:35:24;2.13;;;1.60;;
13471;SDS011;6808;49.444;11.034;2023-10-13T14:37:51;3.80;;;1.40;;
13471;SDS011;6808;49.444;11.034;2023-10-13T14:40:17;3.75;;;1.55;;
13471;SDS011;6808;49.444;11.034;2023-10-13T14:42:46;5.07;;;1.65;;
13471;SDS011;6808;49.444;11.034;2023-10-13T14:45:12;2.03;;;1.25;;
13471;SDS011;6808;49.444;11.034;2023-10-13T14:47:41;2.10;;;1.53;;
13471;SDS011;6808;49.444;11.034;2023-10-13T14:50:10;2.13;;;1.60;;
13471;SDS011;6808;49.444;11.034;2023-10-13T14:52:44;2.00;;;1.60;;
13471;SDS011;6808;49.444;11.034;2023-10-13T14:55:10;2.47;;;1.58;;
13471;SDS011;6808;49.444;11.034;2023-10-13T14:57:47;3.65;;;1.45;;
13471;SDS011;6808;49.444;11.034;2023-10-13T15:00:14;5.43;;;1.90;;
13471;SDS011;6808;49.444;11.034;2023-10-13T15:02:43;1.83;;;1.43;;
13471;SDS011;6808;49.444;11.034;2023-10-13T15:05:09;2.13;;;1.40;;
13471;SDS011;6808;49.444;11.034;2023-10-13T15:07:44;1.77;;;1.30;;
13471;SDS011;6808;49.444;11.034;2023-10-13T15:10:14;4.13;;;1.80;;
13471;SDS011;6808;49.444;11.034;2023-10-13T15:12:43;2.67;;;1.60;;
13471;SDS011;6808;49.444;11.034;2023-10-13T15:15:12;3.47;;;2.13;;
13471;SDS011;6808;49.444;11.034;2023-10-13T15:17:44;3.47;;;1.67;;
13471;SDS011;6808;49.444;11.034;2023-10-13T15:20:10;5.03;;;1.70;;
13471;SDS011;6808;49.444;11.034;2023-10-13T15:22:44;3.10;;;1.73;;
13471;SDS011;6808;49.444;11.034;2023-10-13T15:25:12;2.90;;;1.77;;
13471;SDS011;6808;49.444;11.034;2023-10-13T15:27:53;2.70;;;1.40;;
13471;SDS011;6808;49.444;11.034;2023-10-13T15:30:28;1.50;;;1.13;;
13471;SDS011;6808;49.444;11.034;2023-10-13T15:33:08;2.60;;;1.50;;
13471;SDS011;6808;49.444;11.034;2023-10-13T15:35:37;3.77;;;1.70;;
13471;SDS011;6808;49.444;11.034;2023-10-13T15:38:03;4.40;;;1.47;;
13471;SDS011;6808;49.444;11.034;2023-10-13T15:40:31;2.23;;;1.60;;
13471;SDS011;6808;49.444;11.034;2023-10-13T15:42:57;2.63;;;1.70;;